sensor_id;sensor_type;location;lat;lon;timestamp;P1;durP1;ratioP1;P2;durP2;ratioP2
78053;SDS011;67726;45.636;11.752;2023-08-07T00:00:36;3.70;;;1.30;;
78053;SDS011;67726;45.636;11.752;2023-08-07T00:03:02;4.82;;;1.40;;
78053;SDS011;67726;45.636;11.752;2023-08-07T00:05:28;4.00;;;1.50;;
78053;SDS011;67726;45.636;11.752;2023-08-07T00:07:55;3.15;;;1.60;;
78053;SDS011;67726;45.636;11.752;2023-08-07T00:10:21;4.13;;;1.45;;
78053;SDS011;67726;45.636;11.752;2023-08-07T00:12:47;3.22;;;1.33;;
78053;SDS011;67726;45.636;11.752;2023-08-07T00:15:13;4.73;;;1.90;;
78053;SDS011;67726;45.636;11.752;2023-08-07T00:17:38;4.93;;;1.80;;
78053;SDS011;67726;45.636;11.752;2023-08-07T00:20:04;4.20;;;1.40;;
78053;SDS011;67726;45.636;11.752;2023-08-07T00:22:30;3.58;;;1.63;;
78053;SDS011;67726;45.636;11.752;2023-08-07T00:24:56;4.33;;;1.40;;
78053;SDS011;67726;45.636;11.752;2023-08-07T00:27:22;3.72;;;1.50;;
78053;SDS011;67726;45.636;11.752;2023-08-07T00:29:47;3.57;;;1.50;;
78053;SDS011;67726;45.636;11.752;2023-08-07T00:32:13;4.70;;;1.58;;
78053;SDS011;67726;45.636;11.752;2023-08-07T00:34:39;4.57;;;1.30;;
78053;SDS011;67726;45.636;11.752;2023-08-07T00:37:04;4.87;;;1.50;;
78053;SDS011;67726;45.636;11.752;2023-08-07T00:39:30;7.72;;;2.00;;
78053;SDS011;67726;45.636;11.752;2023-08-07T00:41:56;4.80;;;1.70;;
78053;SDS011;67726;45.636;11.752;2023-08-07T00:44:21;3.03;;;1.40;;
78053;SDS011;67726;45.636;11.752;2023-08-07T00:46:48;5.80;;;2.10;;
78053;SDS011;67726;45.636;11.752;2023-08-07T00:49:14;5.82;;;1.80;;
78053;SDS011;67726;45.636;11.752;2023-08-07T00:51:43;4.53;;;1.60;;
78053;SDS011;67726;45.636;11.752;2023-08-07T00:54:09;4.22;;;1.70;;
78053;SDS011;67726;45.636;11.752;2023-08-07T00:56:37;4.38;;;1.50;;
78053;SDS011;67726;45.636;11.752;2023-08-07T00:59:04;3.63;;;1.70;;
78053;SDS011;67726;45.636;11.752;2023-08-07T01:01:30;4.87;;;1.70;;
78053;SDS011;67726;45.636;11.752;2023-08-07T01:03:55;3.75;;;1.40;;
78053;SDS011;67726;45.636;11.752;2023-08-07T01:06:21;4.17;;;1.67;;
78053;SDS011;67726;45.636;11.752;2023-08-07T01:08:47;5.43;;;1.60;;
78053;SDS011;67726;45.636;11.752;2023-08-07T01:16:47;4.03;;;1.58;;
78053;SDS011;67726;45.636;11.752;2023-08-07T01:19:33;3.95;;;1.60;;
78053;SDS011;67726;45.636;11.752;2023-08-07T01:22:03;4.63;;;1.77;;
78053;SDS011;67726;45.636;11.752;2023-08-07T01:24:29;5.15;;;2.10;;
78053;SDS011;67726;45.636;11.752;2023-08-07T01:26:55;3.70;;;1.57;;
78053;SDS011;67726;45.636;11.752;2023-08-07T01:29:30;4.15;;;1.75;;
78053;SDS011;67726;45.636;11.752;2023-08-07T01:32:02;3.60;;;1.77;;
78053;SDS011;67726;45.636;11.752;2023-08-07T01:34:32;5.90;;;1.60;;
78053;SDS011;67726;45.636;11.752;2023-08-07T01:36:59;6.15;;;1.95;;
78053;SDS011;67726;45.636;11.752;2023-08-07T01:39:27;3.70;;;1.70;;
78053;SDS011;67726;45.636;11.752;2023-08-07T01:41:54;3.67;;;1.70;;
78053;SDS011;67726;45.636;11.752;2023-08-07T01:44:20;3.58;;;1.50;;
78053;SDS011;67726;45.636;11.752;2023-08-07T01:46:46;3.40;;;1.60;;
78053;SDS011;67726;45.636;11.752;2023-08-07T01:49:11;4.45;;;1.92;;
78053;SDS011;67726;45.636;11.752;2023-08-07T01:51:37;4.80;;;1.60;;
78053;SDS011;67726;45.636;11.752;2023-08-07T01:54:03;5.73;;;1.73;;
78053;SDS011;67726;45.636;11.752;2023-08-07T01:56:28;4.55;;;1.40;;
78053;SDS011;67726;45.636;11.752;2023-08-07T01:58:54;3.90;;;1.77;;
78053;SDS011;67726;45.636;11.752;2023-08-07T02:01:19;5.95;;;1.95;;
78053;SDS011;67726;45.636;11.752;2023-08-07T02:03:45;5.03;;;2.00;;
78053;SDS011;67726;45.636;11.752;2023-08-07T02:06:11;4.67;;;2.00;;
78053;SDS011;67726;45.636;11.752;2023-08-07T02:08:36;4.80;;;2.10;;
78053;SDS011;67726;45.636;11.752;2023-08-07T02:11:02;4.93;;;2.60;;
78053;SDS011;67726;45.636;11.752;2023-08-07T02:13:28;5.55;;;2.08;;
78053;SDS011;67726;45.636;11.752;2023-08-07T02:15:53;5.80;;;2.30;;
78053;SDS011;67726;45.636;11.752;2023-08-07T02:18:19;5.15;;;2.00;;
78053;SDS011;67726;45.636;11.752;2023-08-07T02:20:45;3.83;;;1.77;;
78053;SDS011;67726;45.636;11.752;2023-08-07T02:23:11;4.72;;;1.90;;
78053;SDS011;67726;45.636;11.752;2023-08-07T02:25:37;5.25;;;1.90;;
78053;SDS011;67726;45.636;11.752;2023-08-07T02:28:02;3.50;;;1.67;;
78053;SDS011;67726;45.636;11.752;2023-08-07T02:30:29;4.60;;;1.73;;
78053;SDS011;67726;45.636;11.752;2023-08-07T02:32:56;4.63;;;1.93;;
78053;SDS011;67726;45.636;11.752;2023-08-07T02:35:21;5.45;;;1.83;;
78053;SDS011;67726;45.636;11.752;2023-08-07T02:37:47;10.53;;;2.07;;
78053;SDS011;67726;45.636;11.752;2023-08-07T02:40:12;4.32;;;1.98;;
78053;SDS011;67726;45.636;11.752;2023-08-07T02:42:40;4.15;;;1.83;;
78053;SDS011;67726;45.636;11.752;2023-08-07T02:45:07;4.50;;;1.90;;
78053;SDS011;67726;45.636;11.752;2023-08-07T02:47:33;5.15;;;2.10;;
78053;SDS011;67726;45.636;11.752;2023-08-07T02:49:59;6.20;;;1.80;;
78053;SDS011;67726;45.636;11.752;2023-08-07T02:52:24;6.97;;;1.70;;
78053;SDS011;67726;45.636;11.752;2023-08-07T02:54:50;3.70;;;1.60;;
78053;SDS011;67726;45.636;11.752;2023-08-07T02:57:16;5.43;;;1.93;;
78053;SDS011;67726;45.636;11.752;2023-08-07T02:59:41;4.60;;;1.63;;
78053;SDS011;67726;45.636;11.752;2023-08-07T03:02:07;3.80;;;1.83;;
78053;SDS011;67726;45.636;11.752;2023-08-07T03:04:32;4.27;;;2.10;;
78053;SDS011;67726;45.636;11.752;2023-08-07T03:06:58;5.35;;;1.75;;
78053;SDS011;67726;45.636;11.752;2023-08-07T03:09:25;3.90;;;1.60;;
78053;SDS011;67726;45.636;11.752;2023-08-07T03:11:50;5.35;;;2.10;;
78053;SDS011;67726;45.636;11.752;2023-08-07T03:14:16;4.43;;;2.10;;
78053;SDS011;67726;45.636;11.752;2023-08-07T03:16:42;6.15;;;2.60;;
78053;SDS011;67726;45.636;11.752;2023-08-07T03:19:07;5.63;;;2.47;;
78053;SDS011;67726;45.636;11.752;2023-08-07T03:21:33;6.55;;;3.42;;
78053;SDS011;67726;45.636;11.752;2023-08-07T03:23:59;6.73;;;3.70;;
78053;SDS011;67726;45.636;11.752;2023-08-07T03:26:24;7.30;;;3.50;;
78053;SDS011;67726;45.636;11.752;2023-08-07T03:28:50;7.10;;;3.90;;
78053;SDS011;67726;45.636;11.752;2023-08-07T03:31:16;5.83;;;3.77;;
78053;SDS011;67726;45.636;11.752;2023-08-07T03:33:41;6.37;;;3.90;;
78053;SDS011;67726;45.636;11.752;2023-08-07T03:36:07;7.00;;;3.63;;
78053;SDS011;67726;45.636;11.752;2023-08-07T03:38:34;6.10;;;3.45;;
78053;SDS011;67726;45.636;11.752;2023-08-07T03:40:59;7.20;;;3.73;;
78053;SDS011;67726;45.636;11.752;2023-08-07T03:43:25;6.00;;;3.27;;
78053;SDS011;67726;45.636;11.752;2023-08-07T03:45:54;7.05;;;3.65;;
78053;SDS011;67726;45.636;11.752;2023-08-07T03:48:24;9.48;;;3.80;;
78053;SDS011;67726;45.636;11.752;2023-08-07T03:50:49;6.00;;;3.23;;
78053;SDS011;67726;45.636;11.752;2023-08-07T03:53:15;5.97;;;3.20;;
78053;SDS011;67726;45.636;11.752;2023-08-07T03:55:40;5.90;;;3.30;;
78053;SDS011;67726;45.636;11.752;2023-08-07T03:58:07;7.47;;;3.55;;
78053;SDS011;67726;45.636;11.752;2023-08-07T04:00:33;6.25;;;3.10;;
78053;SDS011;67726;45.636;11.752;2023-08-07T04:02:58;9.13;;;3.10;;
78053;SDS011;67726;45.636;11.752;2023-08-07T04:05:25;5.93;;;3.20;;
78053;SDS011;67726;45.636;11.752;2023-08-07T04:07:50;5.87;;;3.17;;
78053;SDS011;67726;45.636;11.752;2023-08-07T04:10:16;6.40;;;3.13;;
78053;SDS011;67726;45.636;11.752;2023-08-07T04:12:42;5.37;;;3.07;;
78053;SDS011;67726;45.636;11.752;2023-08-07T04:15:07;6.32;;;3.28;;
78053;SDS011;67726;45.636;11.752;2023-08-07T04:17:35;7.45;;;3.03;;
78053;SDS011;67726;45.636;11.752;2023-08-07T04:20:01;5.70;;;3.40;;
78053;SDS011;67726;45.636;11.752;2023-08-07T04:22:28;5.55;;;3.13;;
78053;SDS011;67726;45.636;11.752;2023-08-07T04:24:54;6.35;;;2.88;;
78053;SDS011;67726;45.636;11.752;2023-08-07T04:27:19;6.87;;;2.80;;
78053;SDS011;67726;45.636;11.752;2023-08-07T04:29:45;5.70;;;2.70;;
78053;SDS011;67726;45.636;11.752;2023-08-07T04:32:11;6.07;;;2.72;;
78053;SDS011;67726;45.636;11.752;2023-08-07T04:34:36;5.37;;;2.80;;
78053;SDS011;67726;45.636;11.752;2023-08-07T04:37:02;5.80;;;3.00;;
78053;SDS011;67726;45.636;11.752;2023-08-07T04:39:28;4.80;;;2.37;;
78053;SDS011;67726;45.636;11.752;2023-08-07T04:41:53;6.10;;;2.30;;
78053;SDS011;67726;45.636;11.752;2023-08-07T04:44:19;6.70;;;2.63;;
78053;SDS011;67726;45.636;11.752;2023-08-07T04:46:44;8.77;;;2.40;;
78053;SDS011;67726;45.636;11.752;2023-08-07T04:49:10;4.50;;;2.40;;
78053;SDS011;67726;45.636;11.752;2023-08-07T04:51:36;5.97;;;2.50;;
78053;SDS011;67726;45.636;11.752;2023-08-07T04:54:02;5.57;;;2.78;;
78053;SDS011;67726;45.636;11.752;2023-08-07T04:56:27;4.95;;;2.60;;
78053;SDS011;67726;45.636;11.752;2023-08-07T04:58:53;6.23;;;2.70;;
78053;SDS011;67726;45.636;11.752;2023-08-07T05:01:18;5.90;;;2.33;;
78053;SDS011;67726;45.636;11.752;2023-08-07T05:03:44;5.15;;;2.58;;
78053;SDS011;67726;45.636;11.752;2023-08-07T05:06:10;5.47;;;2.50;;
78053;SDS011;67726;45.636;11.752;2023-08-07T05:08:35;4.50;;;2.30;;
78053;SDS011;67726;45.636;11.752;2023-08-07T05:11:01;9.27;;;2.20;;
78053;SDS011;67726;45.636;11.752;2023-08-07T05:13:27;5.57;;;1.88;;
78053;SDS011;67726;45.636;11.752;2023-08-07T05:15:52;4.93;;;1.80;;
78053;SDS011;67726;45.636;11.752;2023-08-07T05:18:18;5.33;;;2.23;;
78053;SDS011;67726;45.636;11.752;2023-08-07T05:20:44;7.57;;;2.65;;
78053;SDS011;67726;45.636;11.752;2023-08-07T05:23:10;5.50;;;1.90;;
78053;SDS011;67726;45.636;11.752;2023-08-07T05:25:36;5.73;;;2.67;;
78053;SDS011;67726;45.636;11.752;2023-08-07T05:28:02;5.28;;;2.42;;
78053;SDS011;67726;45.636;11.752;2023-08-07T05:30:28;5.93;;;1.90;;
78053;SDS011;67726;45.636;11.752;2023-08-07T05:32:54;3.90;;;1.63;;
78053;SDS011;67726;45.636;11.752;2023-08-07T05:35:19;3.95;;;1.80;;
78053;SDS011;67726;45.636;11.752;2023-08-07T05:37:45;5.80;;;1.60;;
78053;SDS011;67726;45.636;11.752;2023-08-07T05:40:11;5.20;;;1.60;;
78053;SDS011;67726;45.636;11.752;2023-08-07T05:42:37;5.53;;;1.70;;
78053;SDS011;67726;45.636;11.752;2023-08-07T05:45:03;4.83;;;1.80;;
78053;SDS011;67726;45.636;11.752;2023-08-07T05:47:29;6.72;;;1.70;;
78053;SDS011;67726;45.636;11.752;2023-08-07T05:49:55;3.17;;;1.30;;
78053;SDS011;67726;45.636;11.752;2023-08-07T05:52:20;4.23;;;1.57;;
78053;SDS011;67726;45.636;11.752;2023-08-07T05:54:46;4.22;;;1.52;;
78053;SDS011;67726;45.636;11.752;2023-08-07T05:57:12;5.13;;;1.63;;
78053;SDS011;67726;45.636;11.752;2023-08-07T05:59:38;5.57;;;1.60;;
78053;SDS011;67726;45.636;11.752;2023-08-07T06:02:05;5.05;;;1.33;;
78053;SDS011;67726;45.636;11.752;2023-08-07T06:04:31;7.38;;;1.23;;
78053;SDS011;67726;45.636;11.752;2023-08-07T06:06:57;5.50;;;1.30;;
78053;SDS011;67726;45.636;11.752;2023-08-07T06:09:23;3.70;;;1.17;;
78053;SDS011;67726;45.636;11.752;2023-08-07T06:11:48;4.17;;;1.20;;
78053;SDS011;67726;45.636;11.752;2023-08-07T06:14:14;4.57;;;1.17;;
78053;SDS011;67726;45.636;11.752;2023-08-07T06:16:39;5.27;;;1.40;;
78053;SDS011;67726;45.636;11.752;2023-08-07T06:19:05;4.20;;;1.10;;
78053;SDS011;67726;45.636;11.752;2023-08-07T06:21:31;4.03;;;1.20;;
78053;SDS011;67726;45.636;11.752;2023-08-07T06:23:56;5.53;;;1.48;;
78053;SDS011;67726;45.636;11.752;2023-08-07T06:26:22;6.03;;;1.50;;
78053;SDS011;67726;45.636;11.752;2023-08-07T06:28:48;4.72;;;1.42;;
78053;SDS011;67726;45.636;11.752;2023-08-07T06:31:15;4.57;;;1.20;;
78053;SDS011;67726;45.636;11.752;2023-08-07T06:33:41;4.10;;;1.10;;
78053;SDS011;67726;45.636;11.752;2023-08-07T06:36:06;7.07;;;1.97;;
78053;SDS011;67726;45.636;11.752;2023-08-07T06:38:36;9.65;;;2.22;;
78053;SDS011;67726;45.636;11.752;2023-08-07T06:41:02;5.88;;;2.13;;
78053;SDS011;67726;45.636;11.752;2023-08-07T06:43:28;6.68;;;2.15;;
78053;SDS011;67726;45.636;11.752;2023-08-07T06:45:54;6.43;;;1.90;;
78053;SDS011;67726;45.636;11.752;2023-08-07T06:48:20;6.60;;;1.88;;
78053;SDS011;67726;45.636;11.752;2023-08-07T06:50:46;5.68;;;1.65;;
78053;SDS011;67726;45.636;11.752;2023-08-07T06:53:12;4.67;;;1.60;;
78053;SDS011;67726;45.636;11.752;2023-08-07T06:55:38;6.35;;;1.35;;
78053;SDS011;67726;45.636;11.752;2023-08-07T06:58:05;7.82;;;1.40;;
78053;SDS011;67726;45.636;11.752;2023-08-07T07:00:31;6.03;;;1.23;;
78053;SDS011;67726;45.636;11.752;2023-08-07T07:02:57;5.90;;;1.20;;
78053;SDS011;67726;45.636;11.752;2023-08-07T07:05:22;2.73;;;0.90;;
78053;SDS011;67726;45.636;11.752;2023-08-07T07:07:48;3.50;;;0.85;;
78053;SDS011;67726;45.636;11.752;2023-08-07T07:10:14;3.80;;;0.70;;
78053;SDS011;67726;45.636;11.752;2023-08-07T07:12:39;6.10;;;1.08;;
78053;SDS011;67726;45.636;11.752;2023-08-07T07:15:05;4.17;;;1.07;;
78053;SDS011;67726;45.636;11.752;2023-08-07T07:17:31;2.42;;;0.90;;
78053;SDS011;67726;45.636;11.752;2023-08-07T07:19:57;3.25;;;0.82;;
78053;SDS011;67726;45.636;11.752;2023-08-07T07:22:23;4.47;;;1.00;;
78053;SDS011;67726;45.636;11.752;2023-08-07T07:24:48;3.83;;;0.80;;
78053;SDS011;67726;45.636;11.752;2023-08-07T07:27:14;3.10;;;0.70;;
78053;SDS011;67726;45.636;11.752;2023-08-07T07:29:40;3.80;;;0.73;;
78053;SDS011;67726;45.636;11.752;2023-08-07T07:32:05;3.28;;;0.90;;
78053;SDS011;67726;45.636;11.752;2023-08-07T07:34:31;6.35;;;0.88;;
78053;SDS011;67726;45.636;11.752;2023-08-07T07:36:58;6.63;;;0.90;;
78053;SDS011;67726;45.636;11.752;2023-08-07T07:39:23;8.27;;;1.30;;
78053;SDS011;67726;45.636;11.752;2023-08-07T07:41:49;11.07;;;1.10;;
78053;SDS011;67726;45.636;11.752;2023-08-07T07:44:15;11.98;;;1.30;;
78053;SDS011;67726;45.636;11.752;2023-08-07T07:46:40;7.20;;;1.20;;
78053;SDS011;67726;45.636;11.752;2023-08-07T07:49:06;6.00;;;1.00;;
78053;SDS011;67726;45.636;11.752;2023-08-07T07:51:32;3.87;;;0.73;;
78053;SDS011;67726;45.636;11.752;2023-08-07T07:53:58;4.45;;;0.80;;
78053;SDS011;67726;45.636;11.752;2023-08-07T07:56:23;3.95;;;0.98;;
78053;SDS011;67726;45.636;11.752;2023-08-07T07:58:49;4.40;;;0.93;;
78053;SDS011;67726;45.636;11.752;2023-08-07T08:01:15;3.72;;;0.65;;
78053;SDS011;67726;45.636;11.752;2023-08-07T08:03:41;3.80;;;0.95;;
78053;SDS011;67726;45.636;11.752;2023-08-07T08:06:08;2.57;;;0.70;;
78053;SDS011;67726;45.636;11.752;2023-08-07T08:08:36;2.45;;;0.70;;
78053;SDS011;67726;45.636;11.752;2023-08-07T08:11:01;4.35;;;0.93;;
78053;SDS011;67726;45.636;11.752;2023-08-07T08:13:27;3.70;;;0.90;;
78053;SDS011;67726;45.636;11.752;2023-08-07T08:15:53;3.92;;;0.80;;
78053;SDS011;67726;45.636;11.752;2023-08-07T08:18:19;4.97;;;0.90;;
78053;SDS011;67726;45.636;11.752;2023-08-07T08:20:45;3.20;;;0.82;;
78053;SDS011;67726;45.636;11.752;2023-08-07T08:23:10;2.60;;;0.50;;
78053;SDS011;67726;45.636;11.752;2023-08-07T08:25:36;2.42;;;0.75;;
78053;SDS011;67726;45.636;11.752;2023-08-07T08:28:02;2.87;;;0.87;;
78053;SDS011;67726;45.636;11.752;2023-08-07T08:30:27;4.82;;;0.70;;
78053;SDS011;67726;45.636;11.752;2023-08-07T08:32:53;2.35;;;0.70;;
78053;SDS011;67726;45.636;11.752;2023-08-07T08:35:19;2.20;;;0.63;;
78053;SDS011;67726;45.636;11.752;2023-08-07T08:37:45;3.50;;;0.80;;
78053;SDS011;67726;45.636;11.752;2023-08-07T08:40:10;3.03;;;0.50;;
78053;SDS011;67726;45.636;11.752;2023-08-07T08:42:38;3.90;;;0.77;;
78053;SDS011;67726;45.636;11.752;2023-08-07T08:45:05;3.00;;;0.70;;
78053;SDS011;67726;45.636;11.752;2023-08-07T08:47:36;3.90;;;0.70;;
78053;SDS011;67726;45.636;11.752;2023-08-07T08:50:13;5.50;;;0.80;;
78053;SDS011;67726;45.636;11.752;2023-08-07T08:52:43;3.63;;;0.80;;
78053;SDS011;67726;45.636;11.752;2023-08-07T08:55:10;3.33;;;0.75;;
78053;SDS011;67726;45.636;11.752;2023-08-07T08:57:36;2.00;;;0.60;;
78053;SDS011;67726;45.636;11.752;2023-08-07T09:00:03;2.25;;;0.70;;
78053;SDS011;67726;45.636;11.752;2023-08-07T09:02:38;2.53;;;0.60;;
78053;SDS011;67726;45.636;11.752;2023-08-07T09:05:04;2.28;;;0.70;;
78053;SDS011;67726;45.636;11.752;2023-08-07T09:07:30;5.88;;;0.70;;
78053;SDS011;67726;45.636;11.752;2023-08-07T09:09:56;2.53;;;0.60;;
78053;SDS011;67726;45.636;11.752;2023-08-07T09:12:26;2.50;;;0.70;;
78053;SDS011;67726;45.636;11.752;2023-08-07T09:14:56;1.83;;;0.55;;
78053;SDS011;67726;45.636;11.752;2023-08-07T09:17:23;2.35;;;0.70;;
78053;SDS011;67726;45.636;11.752;2023-08-07T09:19:52;1.97;;;0.60;;
78053;SDS011;67726;45.636;11.752;2023-08-07T09:22:18;1.60;;;0.50;;
78053;SDS011;67726;45.636;11.752;2023-08-07T09:24:45;4.63;;;0.57;;
78053;SDS011;67726;45.636;11.752;2023-08-07T09:27:11;4.30;;;0.60;;
78053;SDS011;67726;45.636;11.752;2023-08-07T09:29:39;2.47;;;0.60;;
78053;SDS011;67726;45.636;11.752;2023-08-07T09:32:11;1.83;;;0.50;;
78053;SDS011;67726;45.636;11.752;2023-08-07T09:34:41;1.92;;;0.50;;
78053;SDS011;67726;45.636;11.752;2023-08-07T09:37:08;1.70;;;0.50;;
78053;SDS011;67726;45.636;11.752;2023-08-07T09:39:35;1.63;;;0.60;;
78053;SDS011;67726;45.636;11.752;2023-08-07T09:42:01;2.75;;;0.70;;
78053;SDS011;67726;45.636;11.752;2023-08-07T09:44:34;4.70;;;0.97;;
78053;SDS011;67726;45.636;11.752;2023-08-07T09:47:01;3.38;;;1.15;;
78053;SDS011;67726;45.636;11.752;2023-08-07T09:49:43;2.97;;;0.80;;
78053;SDS011;67726;45.636;11.752;2023-08-07T09:52:10;2.88;;;0.60;;
78053;SDS011;67726;45.636;11.752;2023-08-07T09:54:43;5.22;;;0.70;;
78053;SDS011;67726;45.636;11.752;2023-08-07T09:57:09;3.57;;;0.67;;
78053;SDS011;67726;45.636;11.752;2023-08-07T09:59:35;4.88;;;0.80;;
78053;SDS011;67726;45.636;11.752;2023-08-07T10:02:01;4.13;;;0.80;;
78053;SDS011;67726;45.636;11.752;2023-08-07T10:04:27;2.47;;;0.90;;
78053;SDS011;67726;45.636;11.752;2023-08-07T10:06:54;2.72;;;0.60;;
78053;SDS011;67726;45.636;11.752;2023-08-07T10:09:21;3.13;;;0.65;;
78053;SDS011;67726;45.636;11.752;2023-08-07T10:11:46;3.03;;;0.60;;
78053;SDS011;67726;45.636;11.752;2023-08-07T10:14:14;4.07;;;0.90;;
78053;SDS011;67726;45.636;11.752;2023-08-07T10:16:40;3.35;;;0.60;;
78053;SDS011;67726;45.636;11.752;2023-08-07T10:19:07;3.40;;;0.73;;
78053;SDS011;67726;45.636;11.752;2023-08-07T10:21:36;2.72;;;0.60;;
78053;SDS011;67726;45.636;11.752;2023-08-07T10:24:04;1.90;;;0.60;;
78053;SDS011;67726;45.636;11.752;2023-08-07T10:26:31;2.30;;;0.60;;
78053;SDS011;67726;45.636;11.752;2023-08-07T10:28:59;2.47;;;0.50;;
78053;SDS011;67726;45.636;11.752;2023-08-07T10:31:27;2.10;;;0.52;;
78053;SDS011;67726;45.636;11.752;2023-08-07T10:33:55;4.40;;;0.80;;
78053;SDS011;67726;45.636;11.752;2023-08-07T10:36:20;2.20;;;0.73;;
78053;SDS011;67726;45.636;11.752;2023-08-07T10:38:49;2.08;;;0.70;;
78053;SDS011;67726;45.636;11.752;2023-08-07T10:41:18;3.87;;;0.73;;
78053;SDS011;67726;45.636;11.752;2023-08-07T10:43:44;6.25;;;1.02;;
78053;SDS011;67726;45.636;11.752;2023-08-07T10:46:19;2.47;;;0.60;;
78053;SDS011;67726;45.636;11.752;2023-08-07T10:48:47;1.95;;;0.70;;
78053;SDS011;67726;45.636;11.752;2023-08-07T10:51:19;4.37;;;0.73;;
78053;SDS011;67726;45.636;11.752;2023-08-07T10:53:49;3.42;;;0.80;;
78053;SDS011;67726;45.636;11.752;2023-08-07T10:56:29;2.55;;;0.60;;
78053;SDS011;67726;45.636;11.752;2023-08-07T10:58:56;2.10;;;0.80;;
78053;SDS011;67726;45.636;11.752;2023-08-07T11:04:09;2.78;;;0.52;;
78053;SDS011;67726;45.636;11.752;2023-08-07T11:06:40;1.20;;;0.40;;
78053;SDS011;67726;45.636;11.752;2023-08-07T11:09:08;1.90;;;0.60;;
78053;SDS011;67726;45.636;11.752;2023-08-07T11:11:42;2.03;;;0.60;;
78053;SDS011;67726;45.636;11.752;2023-08-07T11:14:10;1.75;;;0.50;;
78053;SDS011;67726;45.636;11.752;2023-08-07T11:16:36;1.25;;;0.50;;
78053;SDS011;67726;45.636;11.752;2023-08-07T11:19:02;2.08;;;0.50;;
78053;SDS011;67726;45.636;11.752;2023-08-07T11:21:32;1.63;;;0.50;;
78053;SDS011;67726;45.636;11.752;2023-08-07T11:23:58;1.67;;;0.50;;
78053;SDS011;67726;45.636;11.752;2023-08-07T11:26:24;1.58;;;0.50;;
78053;SDS011;67726;45.636;11.752;2023-08-07T11:28:52;1.70;;;0.60;;
78053;SDS011;67726;45.636;11.752;2023-08-07T11:31:22;1.90;;;0.65;;
78053;SDS011;67726;45.636;11.752;2023-08-07T11:33:54;1.88;;;0.63;;
78053;SDS011;67726;45.636;11.752;2023-08-07T11:36:20;1.60;;;0.60;;
78053;SDS011;67726;45.636;11.752;2023-08-07T11:38:47;1.92;;;0.60;;
78053;SDS011;67726;45.636;11.752;2023-08-07T11:41:13;2.75;;;0.60;;
78053;SDS011;67726;45.636;11.752;2023-08-07T11:43:41;2.63;;;0.60;;
78053;SDS011;67726;45.636;11.752;2023-08-07T11:46:08;1.90;;;0.60;;
78053;SDS011;67726;45.636;11.752;2023-08-07T11:48:36;1.67;;;0.50;;
78053;SDS011;67726;45.636;11.752;2023-08-07T11:51:03;1.98;;;0.70;;
78053;SDS011;67726;45.636;11.752;2023-08-07T11:53:31;2.05;;;0.70;;
78053;SDS011;67726;45.636;11.752;2023-08-07T11:55:59;2.27;;;0.63;;
78053;SDS011;67726;45.636;11.752;2023-08-07T11:58:42;2.45;;;0.50;;
78053;SDS011;67726;45.636;11.752;2023-08-07T12:01:16;2.25;;;0.70;;
78053;SDS011;67726;45.636;11.752;2023-08-07T12:06:30;1.63;;;0.60;;
78053;SDS011;67726;45.636;11.752;2023-08-07T12:08:56;2.73;;;0.60;;
78053;SDS011;67726;45.636;11.752;2023-08-07T12:11:22;2.95;;;0.88;;
78053;SDS011;67726;45.636;11.752;2023-08-07T12:13:50;1.85;;;0.80;;
78053;SDS011;67726;45.636;11.752;2023-08-07T12:16:16;2.23;;;0.80;;
78053;SDS011;67726;45.636;11.752;2023-08-07T12:18:43;2.25;;;0.60;;
78053;SDS011;67726;45.636;11.752;2023-08-07T12:21:13;2.67;;;0.70;;
78053;SDS011;67726;45.636;11.752;2023-08-07T12:23:41;3.20;;;0.73;;
78053;SDS011;67726;45.636;11.752;2023-08-07T12:26:06;4.40;;;0.70;;
78053;SDS011;67726;45.636;11.752;2023-08-07T12:28:33;2.58;;;0.60;;
78053;SDS011;67726;45.636;11.752;2023-08-07T12:31:00;3.05;;;0.88;;
78053;SDS011;67726;45.636;11.752;2023-08-07T12:33:26;2.67;;;0.50;;
78053;SDS011;67726;45.636;11.752;2023-08-07T12:35:53;3.17;;;0.60;;
78053;SDS011;67726;45.636;11.752;2023-08-07T12:38:19;2.90;;;0.68;;
78053;SDS011;67726;45.636;11.752;2023-08-07T12:40:45;2.03;;;0.60;;
78053;SDS011;67726;45.636;11.752;2023-08-07T12:43:10;3.03;;;0.70;;
78053;SDS011;67726;45.636;11.752;2023-08-07T12:45:36;2.17;;;0.68;;
78053;SDS011;67726;45.636;11.752;2023-08-07T12:48:02;2.22;;;0.75;;
78053;SDS011;67726;45.636;11.752;2023-08-07T12:50:29;1.80;;;0.70;;
78053;SDS011;67726;45.636;11.752;2023-08-07T12:52:55;2.85;;;0.80;;
78053;SDS011;67726;45.636;11.752;2023-08-07T12:55:20;2.40;;;0.70;;
78053;SDS011;67726;45.636;11.752;2023-08-07T12:57:46;4.50;;;0.60;;
78053;SDS011;67726;45.636;11.752;2023-08-07T13:00:14;3.10;;;0.60;;
78053;SDS011;67726;45.636;11.752;2023-08-07T13:02:44;3.22;;;0.77;;
78053;SDS011;67726;45.636;11.752;2023-08-07T13:05:11;3.17;;;1.00;;
78053;SDS011;67726;45.636;11.752;2023-08-07T13:07:38;2.50;;;0.70;;
78053;SDS011;67726;45.636;11.752;2023-08-07T13:10:04;2.23;;;0.60;;
78053;SDS011;67726;45.636;11.752;2023-08-07T13:12:34;3.13;;;0.80;;
78053;SDS011;67726;45.636;11.752;2023-08-07T13:15:00;3.65;;;0.80;;
78053;SDS011;67726;45.636;11.752;2023-08-07T13:17:26;4.20;;;0.90;;
78053;SDS011;67726;45.636;11.752;2023-08-07T13:19:51;1.73;;;0.63;;
78053;SDS011;67726;45.636;11.752;2023-08-07T13:22:17;3.53;;;0.63;;
78053;SDS011;67726;45.636;11.752;2023-08-07T13:24:43;3.17;;;0.80;;
78053;SDS011;67726;45.636;11.752;2023-08-07T13:27:08;3.20;;;0.70;;
78053;SDS011;67726;45.636;11.752;2023-08-07T13:29:34;2.53;;;0.77;;
78053;SDS011;67726;45.636;11.752;2023-08-07T13:32:00;4.15;;;0.70;;
78053;SDS011;67726;45.636;11.752;2023-08-07T13:34:28;3.30;;;0.70;;
78053;SDS011;67726;45.636;11.752;2023-08-07T13:36:54;3.88;;;0.80;;
78053;SDS011;67726;45.636;11.752;2023-08-07T13:39:20;2.50;;;0.80;;
78053;SDS011;67726;45.636;11.752;2023-08-07T13:41:46;1.98;;;0.60;;
78053;SDS011;67726;45.636;11.752;2023-08-07T13:44:12;2.85;;;0.80;;
78053;SDS011;67726;45.636;11.752;2023-08-07T13:46:37;2.10;;;0.80;;
78053;SDS011;67726;45.636;11.752;2023-08-07T13:49:03;3.40;;;0.90;;
78053;SDS011;67726;45.636;11.752;2023-08-07T13:51:29;6.03;;;0.70;;
78053;SDS011;67726;45.636;11.752;2023-08-07T13:53:54;2.40;;;0.70;;
78053;SDS011;67726;45.636;11.752;2023-08-07T13:56:20;3.47;;;0.70;;
78053;SDS011;67726;45.636;11.752;2023-08-07T13:58:46;2.95;;;0.80;;
78053;SDS011;67726;45.636;11.752;2023-08-07T14:01:11;2.77;;;0.80;;
78053;SDS011;67726;45.636;11.752;2023-08-07T14:03:37;1.85;;;0.50;;
78053;SDS011;67726;45.636;11.752;2023-08-07T14:06:03;4.23;;;0.90;;
78053;SDS011;67726;45.636;11.752;2023-08-07T14:08:28;2.47;;;0.70;;
78053;SDS011;67726;45.636;11.752;2023-08-07T14:10:54;2.13;;;0.70;;
78053;SDS011;67726;45.636;11.752;2023-08-07T14:13:20;2.15;;;0.70;;
78053;SDS011;67726;45.636;11.752;2023-08-07T14:15:46;2.43;;;0.60;;
78053;SDS011;67726;45.636;11.752;2023-08-07T14:18:12;3.03;;;0.70;;
78053;SDS011;67726;45.636;11.752;2023-08-07T14:20:40;3.38;;;0.75;;
78053;SDS011;67726;45.636;11.752;2023-08-07T14:23:05;2.53;;;0.63;;
78053;SDS011;67726;45.636;11.752;2023-08-07T14:25:31;2.10;;;0.80;;
78053;SDS011;67726;45.636;11.752;2023-08-07T14:27:57;2.30;;;0.50;;
78053;SDS011;67726;45.636;11.752;2023-08-07T14:30:22;2.95;;;0.75;;
78053;SDS011;67726;45.636;11.752;2023-08-07T14:32:48;4.40;;;0.80;;
78053;SDS011;67726;45.636;11.752;2023-08-07T14:35:14;2.80;;;0.80;;
78053;SDS011;67726;45.636;11.752;2023-08-07T14:37:40;2.45;;;0.88;;
78053;SDS011;67726;45.636;11.752;2023-08-07T14:40:06;2.97;;;0.70;;